Time;durP1;ratioP1;P1;durP2;ratioP2;P2;SDS_P1;SDS_P2;PMS_P1;PMS_P2;Temp;Humidity;BMP_temperature;BMP_pressure;BME280_temperature;BME280_humidity;BME280_pressure;Samples;Min_cycle;Max_cycle;Signal;HPM_P1;HPM_P2
2023/08/22 00:00:13;;;;;;;10.10;7.95;;;16.50;99.90;;;;;;5056308;28;20053;-39
2023/08/22 00:02:39;;;;;;;10.07;8.90;;;16.60;99.90;;;;;;5055498;28;20152;-44
2023/08/22 00:05:06;;;;;;;11.13;8.43;;;16.60;99.90;;;;;;5056263;28;20525;-43
2023/08/22 00:07:31;;;;;;;11.50;9.70;;;16.60;99.90;;;;;;5055430;28;20044;-44
2023/08/22 00:09:57;;;;;;;13.40;9.40;;;16.70;99.90;;;;;;5055706;28;20051;-42
2023/08/22 00:12:23;;;;;;;10.40;9.23;;;16.80;99.90;;;;;;5055289;28;20091;-43
2023/08/22 00:14:50;;;;;;;12.93;8.18;;;16.70;99.90;;;;;;5054498;28;20449;-41
2023/08/22 00:17:16;;;;;;;9.57;7.68;;;16.70;99.90;;;;;;5055129;28;20068;-39
2023/08/22 00:19:42;;;;;;;8.98;7.78;;;16.70;99.90;;;;;;5052782;28;20076;-42
2023/08/22 00:22:08;;;;;;;9.35;8.55;;;16.60;99.90;;;;;;5055068;28;20127;-43
2023/08/22 00:24:35;;;;;;;8.98;8.07;;;16.60;99.90;;;;;;5051717;28;20437;-38
2023/08/22 00:27:01;;;;;;;9.75;8.32;;;16.50;99.90;;;;;;5055948;28;20045;-43
2023/08/22 00:29:27;;;;;;;9.90;7.65;;;16.50;99.90;;;;;;5053424;28;20059;-42
2023/08/22 00:31:52;;;;;;;12.25;8.07;;;16.40;99.90;;;;;;5056675;28;20512;-43
2023/08/22 00:34:18;;;;;;;12.32;8.55;;;16.40;99.90;;;;;;5053824;28;20051;-41
2023/08/22 00:36:44;;;;;;;11.30;8.88;;;16.30;99.90;;;;;;5053968;28;20139;-41
2023/08/22 00:39:09;;;;;;;13.07;9.50;;;16.30;99.90;;;;;;5054038;28;20143;-39
2023/08/22 00:41:35;;;;;;;10.45;8.32;;;16.20;99.90;;;;;;5055923;28;20075;-40
2023/08/22 00:44:01;;;;;;;10.77;8.63;;;16.20;99.90;;;;;;5053150;28;20135;-42
2023/08/22 00:46:28;;;;;;;10.75;9.63;;;16.20;99.90;;;;;;5056039;28;20119;-41
2023/08/22 00:48:54;;;;;;;12.52;9.18;;;16.20;99.90;;;;;;5051055;28;20105;-43
2023/08/22 00:51:21;;;;;;;12.23;9.82;;;16.20;99.90;;;;;;5053643;28;20060;-43
2023/08/22 00:53:47;;;;;;;11.18;9.80;;;16.20;99.90;;;;;;5052769;28;20131;-43
2023/08/22 00:56:14;;;;;;;12.07;10.23;;;16.20;99.90;;;;;;5055213;28;20053;-43
2023/08/22 00:58:41;;;;;;;16.90;10.50;;;16.20;99.90;;;;;;5052766;28;20068;-41
2023/08/22 01:01:08;;;;;;;13.32;9.75;;;16.20;99.90;;;;;;5055081;28;20120;-42
2023/08/22 01:03:34;;;;;;;14.98;10.63;;;16.20;99.90;;;;;;5052352;28;20608;-42
2023/08/22 01:06:17;;;;;;;14.13;10.85;;;16.30;99.90;;;;;;5056018;28;20444;-43
2023/08/22 01:08:48;;;;;;;11.93;9.25;;;16.20;99.90;;;;;;5053895;28;20425;-41
2023/08/22 01:11:35;;;;;;;9.52;8.52;;;16.30;99.90;;;;;;5053654;28;20147;-42
2023/08/22 01:14:07;;;;;;;11.98;9.63;;;16.30;99.90;;;;;;5053843;28;20163;-44
2023/08/22 01:16:33;;;;;;;12.68;9.35;;;16.40;99.90;;;;;;5051276;28;20054;-42
2023/08/22 01:19:01;;;;;;;12.73;9.32;;;16.40;99.90;;;;;;5052187;28;20045;-39
2023/08/22 01:21:27;;;;;;;11.27;9.23;;;16.40;99.90;;;;;;5054247;28;20048;-43
2023/08/22 01:23:52;;;;;;;17.10;10.43;;;16.40;99.90;;;;;;5050906;28;20056;-43
2023/08/22 01:26:18;;;;;;;12.15;9.20;;;16.30;99.90;;;;;;5051877;28;20044;-42
2023/08/22 01:28:51;;;;;;;11.57;9.32;;;16.30;99.90;;;;;;5053866;28;20047;-40
2023/08/22 01:31:30;;;;;;;13.13;9.75;;;16.40;99.90;;;;;;5054352;28;20044;-41
2023/08/22 01:33:58;;;;;;;13.63;9.75;;;16.30;99.90;;;;;;5053254;28;20101;-39
2023/08/22 01:36:25;;;;;;;13.13;9.90;;;16.30;99.90;;;;;;5052609;28;20130;-39
2023/08/22 01:38:53;;;;;;;11.35;9.88;;;16.30;99.90;;;;;;5036124;28;20056;-39
2023/08/22 01:41:20;;;;;;;13.88;10.57;;;16.30;99.90;;;;;;5053454;28;20151;-39
2023/08/22 01:43:49;;;;;;;11.90;9.55;;;16.30;99.90;;;;;;5053578;28;20044;-39
2023/08/22 01:46:14;;;;;;;14.73;9.80;;;16.30;99.90;;;;;;5053947;28;20040;-45
2023/08/22 01:48:40;;;;;;;12.48;8.93;;;16.30;99.90;;;;;;5052491;28;20049;-41
2023/08/22 01:51:06;;;;;;;11.10;9.35;;;16.30;99.90;;;;;;5052297;28;20120;-39
2023/08/22 01:53:32;;;;;;;11.85;9.43;;;16.30;99.90;;;;;;5051751;28;20044;-42
2023/08/22 01:56:01;;;;;;;10.27;8.95;;;16.30;99.90;;;;;;5052981;28;20041;-41
2023/08/22 01:58:27;;;;;;;13.35;10.02;;;16.20;99.90;;;;;;5053734;28;20123;-40
2023/08/22 02:00:53;;;;;;;13.88;9.88;;;16.20;99.90;;;;;;5045492;28;20072;-43
2023/08/22 02:03:20;;;;;;;13.20;10.07;;;16.10;99.90;;;;;;5040616;28;20522;-39
2023/08/22 02:05:46;;;;;;;11.68;9.95;;;16.10;99.90;;;;;;5050590;28;20534;-43
2023/08/22 02:08:11;;;;;;;14.45;9.40;;;16.00;99.90;;;;;;5052487;28;20151;-41
2023/08/22 02:10:37;;;;;;;12.27;9.25;;;16.00;99.90;;;;;;5054022;28;20428;-43
2023/08/22 02:13:03;;;;;;;12.68;9.32;;;16.00;99.90;;;;;;5060646;28;20049;-39
2023/08/22 02:15:29;;;;;;;13.23;9.35;;;16.00;99.90;;;;;;5054319;28;20047;-40
2023/08/22 02:17:54;;;;;;;13.82;11.32;;;16.00;99.90;;;;;;5057157;28;20044;-44
2023/08/22 02:20:20;;;;;;;11.43;9.32;;;16.00;99.90;;;;;;5059880;28;20058;-43
2023/08/22 02:22:46;;;;;;;13.52;9.10;;;16.00;99.90;;;;;;5065941;28;20050;-40
2023/08/22 02:25:12;;;;;;;12.15;10.02;;;15.90;99.90;;;;;;5073220;28;20446;-43
2023/08/22 02:27:37;;;;;;;13.13;9.43;;;15.90;99.90;;;;;;5073543;28;20056;-40
2023/08/22 02:30:08;;;;;;;10.55;9.48;;;15.90;99.90;;;;;;5075249;28;20609;-42
2023/08/22 02:32:34;;;;;;;9.85;8.80;;;15.80;99.90;;;;;;5055682;28;20056;-42
2023/08/22 02:34:59;;;;;;;13.80;10.18;;;15.70;99.90;;;;;;5074403;28;20043;-42
2023/08/22 02:37:25;;;;;;;11.88;8.75;;;15.70;99.90;;;;;;5071533;28;20047;-42
2023/08/22 02:39:51;;;;;;;14.38;8.30;;;15.60;99.90;;;;;;5074102;28;20125;-41
2023/08/22 02:42:16;;;;;;;12.10;9.27;;;15.60;99.90;;;;;;5060519;28;20044;-42
2023/08/22 02:44:42;;;;;;;13.80;9.25;;;15.60;99.90;;;;;;5071207;28;20048;-42
2023/08/22 02:47:08;;;;;;;10.35;8.80;;;15.70;99.90;;;;;;5073147;28;20748;-39
2023/08/22 02:49:33;;;;;;;11.55;9.02;;;15.70;99.90;;;;;;5073382;28;20059;-39
2023/08/22 02:51:59;;;;;;;11.25;8.02;;;15.70;99.90;;;;;;5063931;28;20048;-39
2023/08/22 02:54:25;;;;;;;11.13;8.88;;;15.60;99.90;;;;;;5051185;28;20064;-42
2023/08/22 02:56:51;;;;;;;12.00;9.15;;;15.60;99.90;;;;;;5053348;28;20483;-41
2023/08/22 02:59:19;;;;;;;11.68;8.40;;;15.60;99.90;;;;;;5053327;28;20537;-42
2023/08/22 03:01:44;;;;;;;9.82;8.40;;;15.50;99.90;;;;;;5060435;28;20055;-39
2023/08/22 03:04:10;;;;;;;11.27;8.68;;;15.50;99.90;;;;;;5072723;28;20441;-41
2023/08/22 03:06:36;;;;;;;10.10;7.95;;;15.40;99.90;;;;;;5073194;28;20047;-40
2023/08/22 03:09:03;;;;;;;14.45;10.60;;;15.40;99.90;;;;;;5074183;28;20048;-44
2023/08/22 03:11:28;;;;;;;12.80;9.60;;;15.30;99.90;;;;;;5066144;28;20088;-38
2023/08/22 03:13:54;;;;;;;10.30;8.48;;;15.40;99.90;;;;;;5064514;28;20121;-38
2023/08/22 03:16:20;;;;;;;11.20;8.85;;;15.30;99.90;;;;;;5047480;28;20052;-43
2023/08/22 03:18:46;;;;;;;11.85;8.50;;;15.40;99.90;;;;;;5045602;28;20391;-39
2023/08/22 03:21:12;;;;;;;11.02;8.55;;;15.30;99.90;;;;;;5072702;28;20128;-42
2023/08/22 03:23:37;;;;;;;8.93;8.00;;;15.30;99.90;;;;;;5063965;28;20495;-42
2023/08/22 03:26:03;;;;;;;12.98;8.30;;;15.30;99.90;;;;;;5072487;28;20111;-43
2023/08/22 03:28:31;;;;;;;9.75;7.97;;;15.30;99.90;;;;;;5073673;28;20047;-40
2023/08/22 03:30:59;;;;;;;6.60;5.78;;;15.30;99.90;;;;;;5073985;28;20075;-43
2023/08/22 03:33:25;;;;;;;7.45;5.10;;;15.20;99.90;;;;;;5070971;28;20071;-38
2023/08/22 03:35:55;;;;;;;6.07;5.53;;;15.20;99.90;;;;;;5073356;28;20202;-42
2023/08/22 03:38:21;;;;;;;7.80;6.93;;;15.20;99.90;;;;;;5073163;28;20737;-39
2023/08/22 03:40:48;;;;;;;10.18;7.47;;;15.20;99.90;;;;;;5073899;28;20089;-42
2023/08/22 03:43:16;;;;;;;9.23;8.32;;;15.10;99.90;;;;;;5072599;28;20054;-42
2023/08/22 03:45:43;;;;;;;9.57;7.88;;;15.10;99.90;;;;;;5072009;28;20048;-39
2023/08/22 03:48:09;;;;;;;12.73;8.35;;;15.00;99.90;;;;;;5068739;28;20049;-39
2023/08/22 03:50:34;;;;;;;10.15;9.15;;;14.90;99.90;;;;;;5053147;28;20051;-39
2023/08/22 03:53:00;;;;;;;13.63;10.02;;;14.80;99.90;;;;;;5051836;28;20059;-39
2023/08/22 03:55:26;;;;;;;10.88;9.77;;;14.80;99.90;;;;;;5051532;28;20071;-41
2023/08/22 03:57:52;;;;;;;11.88;9.50;;;14.70;99.90;;;;;;5053154;28;20071;-39
2023/08/22 04:00:17;;;;;;;10.68;9.57;;;14.70;99.90;;;;;;5053643;28;20084;-42
2023/08/22 04:02:43;;;;;;;10.38;8.55;;;14.70;99.90;;;;;;5051055;28;20099;-42
2023/08/22 04:05:09;;;;;;;16.23;11.15;;;14.70;99.90;;;;;;5055362;28;20053;-40
2023/08/22 04:07:34;;;;;;;12.48;9.75;;;14.70;99.90;;;;;;5056235;28;20056;-40
2023/08/22 04:10:00;;;;;;;12.25;9.80;;;14.70;99.90;;;;;;5057287;28;20529;-43
2023/08/22 04:12:26;;;;;;;12.63;10.27;;;14.70;99.90;;;;;;5056275;28;20044;-38
2023/08/22 04:14:51;;;;;;;13.75;10.68;;;14.70;99.90;;;;;;5052352;28;20044;-41
2023/08/22 04:17:17;;;;;;;11.23;10.10;;;14.70;99.90;;;;;;5056339;28;20540;-42
2023/08/22 04:19:43;;;;;;;14.18;11.98;;;14.70;99.90;;;;;;5030228;28;20503;-41
2023/08/22 04:22:08;;;;;;;10.85;9.73;;;14.80;99.90;;;;;;5059558;28;20049;-41
2023/08/22 04:24:34;;;;;;;11.55;9.10;;;14.80;99.90;;;;;;5062993;28;20044;-40
2023/08/22 04:27:00;;;;;;;11.18;8.43;;;14.80;99.90;;;;;;5062706;28;20048;-42
2023/08/22 04:29:25;;;;;;;11.43;8.85;;;14.70;99.90;;;;;;5076085;28;20111;-41
2023/08/22 04:31:51;;;;;;;8.82;7.78;;;14.80;99.90;;;;;;5075967;28;20082;-39
2023/08/22 04:34:16;;;;;;;12.60;9.32;;;14.80;99.90;;;;;;5075941;28;20466;-42
2023/08/22 04:36:42;;;;;;;8.57;7.60;;;14.80;99.90;;;;;;5070198;28;20471;-42
2023/08/22 04:39:08;;;;;;;7.50;6.80;;;14.80;99.90;;;;;;5076727;28;20395;-40
2023/08/22 04:41:33;;;;;;;10.80;7.30;;;14.80;99.90;;;;;;5075668;28;20047;-41
2023/08/22 04:43:59;;;;;;;7.78;6.95;;;14.80;99.90;;;;;;5075179;28;20048;-38
2023/08/22 04:46:25;;;;;;;8.73;7.35;;;14.80;99.90;;;;;;5074728;28;20121;-43
2023/08/22 04:48:50;;;;;;;9.15;8.25;;;14.80;99.90;;;;;;5075743;28;20044;-40
2023/08/22 04:51:16;;;;;;;11.18;8.23;;;14.80;99.90;;;;;;5072063;28;20135;-41
2023/08/22 04:53:42;;;;;;;12.75;8.40;;;14.90;99.90;;;;;;5055431;28;20514;-38
2023/08/22 04:56:08;;;;;;;10.88;8.77;;;15.00;99.90;;;;;;5054638;28;20044;-43
2023/08/22 04:58:33;;;;;;;9.57;8.52;;;15.00;99.90;;;;;;5054174;28;20076;-40
2023/08/22 05:00:59;;;;;;;11.73;8.80;;;15.10;99.90;;;;;;5053846;28;20044;-39
2023/08/22 05:03:25;;;;;;;9.68;7.60;;;15.20;99.90;;;;;;5055183;28;20056;-39
2023/08/22 05:05:50;;;;;;;10.48;7.85;;;15.20;99.90;;;;;;5053781;28;20155;-42
2023/08/22 05:08:16;;;;;;;9.90;8.27;;;15.30;99.90;;;;;;5055164;28;20075;-39
2023/08/22 05:10:42;;;;;;;7.80;7.03;;;15.40;99.90;;;;;;5055485;28;20499;-40
2023/08/22 05:13:08;;;;;;;10.50;8.18;;;15.40;99.90;;;;;;5054862;28;20059;-42
2023/08/22 05:15:34;;;;;;;8.85;8.00;;;15.50;99.90;;;;;;5051488;28;20053;-40
2023/08/22 05:17:59;;;;;;;13.13;8.00;;;15.60;99.90;;;;;;5040219;28;20049;-40
2023/08/22 05:20:25;;;;;;;7.60;6.45;;;15.70;99.90;;;;;;5048310;28;20135;-42
2023/08/22 05:22:51;;;;;;;7.43;6.68;;;15.80;99.90;;;;;;5057023;28;20492;-39
2023/08/22 05:25:17;;;;;;;9.13;5.80;;;16.00;99.90;;;;;;5074590;28;20074;-43
2023/08/22 05:27:43;;;;;;;7.65;5.65;;;16.30;99.90;;;;;;5075241;28;20453;-43
2023/08/22 05:30:09;;;;;;;6.47;5.57;;;16.70;99.90;;;;;;5073319;28;20052;-44
2023/08/22 05:32:35;;;;;;;7.03;5.47;;;17.10;99.90;;;;;;5073997;28;20055;-42
2023/08/22 05:35:00;;;;;;;7.93;6.55;;;17.30;99.90;;;;;;5074146;28;20506;-40
2023/08/22 05:37:26;;;;;;;9.48;6.88;;;17.60;99.90;;;;;;5068156;28;20052;-39
2023/08/22 05:39:52;;;;;;;8.45;7.60;;;18.20;99.90;;;;;;5068516;28;20097;-39
2023/08/22 05:42:17;;;;;;;11.75;6.95;;;18.60;99.90;;;;;;5075097;28;20076;-42
2023/08/22 05:44:43;;;;;;;7.13;5.95;;;18.80;99.90;;;;;;5074574;28;20044;-42
2023/08/22 05:47:09;;;;;;;9.02;5.80;;;18.60;99.90;;;;;;5074215;28;20434;-40
2023/08/22 05:49:35;;;;;;;6.80;6.20;;;18.60;99.90;;;;;;5073565;28;20734;-43
2023/08/22 05:52:02;;;;;;;7.05;5.75;;;19.00;99.90;;;;;;5071720;28;20052;-42
2023/08/22 05:54:28;;;;;;;7.30;5.40;;;19.30;99.90;;;;;;5073686;28;20062;-44
2023/08/22 05:56:54;;;;;;;7.43;6.60;;;19.60;99.90;;;;;;5073260;28;20414;-40
2023/08/22 05:59:19;;;;;;;8.85;7.25;;;19.60;99.90;;;;;;5073959;28;20059;-45
2023/08/22 06:01:45;;;;;;;10.25;8.45;;;19.50;99.90;;;;;;5074587;28;20125;-43
2023/08/22 06:04:11;;;;;;;9.60;8.32;;;19.30;99.90;;;;;;5073531;28;20044;-41
2023/08/22 06:06:36;;;;;;;12.32;9.27;;;19.00;99.90;;;;;;5072002;28;20063;-41
2023/08/22 06:09:02;;;;;;;11.85;9.80;;;18.90;99.90;;;;;;5073986;28;20052;-41
2023/08/22 06:11:27;;;;;;;11.82;10.60;;;18.60;99.90;;;;;;5072538;28;20463;-40
2023/08/22 06:13:55;;;;;;;11.35;10.25;;;18.50;99.90;;;;;;5071838;28;20092;-43
2023/08/22 06:16:21;;;;;;;14.38;10.65;;;18.30;99.90;;;;;;5050366;28;20203;-42
2023/08/22 06:18:47;;;;;;;12.80;11.02;;;18.20;99.90;;;;;;5050621;28;20048;-41
2023/08/22 06:21:12;;;;;;;13.70;11.23;;;18.20;99.90;;;;;;5073716;28;20305;-40
2023/08/22 06:23:38;;;;;;;13.73;10.63;;;18.20;99.90;;;;;;5065617;28;20048;-39
2023/08/22 06:26:04;;;;;;;12.65;10.27;;;18.30;99.90;;;;;;5073310;28;20414;-39
2023/08/22 06:28:29;;;;;;;11.63;9.38;;;18.60;99.90;;;;;;5073831;28;20047;-43
2023/08/22 06:31:01;;;;;;;12.18;10.35;;;19.80;99.90;;;;;;5072583;28;20394;-41
2023/08/22 06:33:26;;;;;;;10.82;9.68;;;21.40;99.90;;;;;;5073014;28;20044;-43
2023/08/22 06:35:52;;;;;;;14.77;9.68;;;22.80;99.90;;;;;;5072735;28;20502;-40
2023/08/22 06:38:18;;;;;;;19.17;10.52;;;24.10;99.90;;;;;;5073655;28;20043;-45
2023/08/22 06:40:43;;;;;;;9.85;8.85;;;25.10;99.90;;;;;;5073715;28;20044;-43
2023/08/22 06:43:09;;;;;;;9.50;8.50;;;25.50;99.90;;;;;;5073418;28;20413;-42
2023/08/22 06:45:34;;;;;;;11.77;9.15;;;25.80;99.90;;;;;;5071304;28;20052;-44
2023/08/22 06:48:00;;;;;;;13.20;10.15;;;25.60;99.90;;;;;;5073177;28;20044;-43
2023/08/22 06:50:26;;;;;;;10.10;9.07;;;25.50;99.90;;;;;;5073569;28;20151;-44
2023/08/22 06:52:51;;;;;;;9.35;8.30;;;25.20;99.90;;;;;;5056265;28;20165;-44
2023/08/22 06:55:17;;;;;;;9.50;8.50;;;24.80;99.90;;;;;;5059406;28;20076;-45
2023/08/22 06:57:43;;;;;;;9.77;8.63;;;24.50;99.90;;;;;;5073342;28;20102;-40
2023/08/22 07:00:15;;;;;;;11.90;9.23;;;24.30;99.90;;;;;;5074311;28;20067;-43
2023/08/22 07:02:45;;;;;;;9.48;8.57;;;24.10;99.90;;;;;;5074051;28;20048;-40
2023/08/22 07:05:12;;;;;;;10.25;8.98;;;24.00;99.90;;;;;;5073081;28;20143;-40
2023/08/22 07:07:39;;;;;;;10.18;9.13;;;23.70;99.90;;;;;;5074500;28;20060;-42
2023/08/22 07:10:06;;;;;;;12.38;8.50;;;23.30;99.90;;;;;;5073098;28;20172;-41
2023/08/22 07:12:31;;;;;;;13.23;10.02;;;23.20;99.90;;;;;;5073495;28;20567;-44
2023/08/22 07:14:57;;;;;;;12.55;10.13;;;23.20;99.90;;;;;;5058808;28;20431;-43
2023/08/22 07:17:23;;;;;;;10.55;8.90;;;23.30;99.90;;;;;;5055075;28;20049;-42
2023/08/22 07:19:48;;;;;;;11.75;9.57;;;23.40;99.90;;;;;;5048419;28;20427;-42
2023/08/22 07:22:14;;;;;;;12.57;9.43;;;23.30;99.90;;;;;;5049283;28;20485;-43
2023/08/22 07:24:40;;;;;;;10.63;9.52;;;23.40;99.90;;;;;;5053842;28;20548;-40
2023/08/22 07:27:05;;;;;;;11.43;8.95;;;23.10;99.90;;;;;;5052064;28;20086;-43
2023/08/22 07:29:31;;;;;;;18.08;9.10;;;23.00;99.90;;;;;;5053622;28;20047;-44
2023/08/22 07:31:59;;;;;;;12.75;9.27;;;22.90;99.90;;;;;;5051498;28;20838;-43
2023/08/22 07:34:25;;;;;;;10.30;7.63;;;23.00;99.90;;;;;;5052432;28;20088;-44
2023/08/22 07:36:52;;;;;;;10.07;7.55;;;22.80;99.90;;;;;;5055106;28;20048;-40
2023/08/22 07:39:18;;;;;;;10.95;7.82;;;22.70;99.90;;;;;;5056765;28;20106;-45
2023/08/22 07:41:44;;;;;;;10.07;8.13;;;22.70;99.90;;;;;;5057206;28;20051;-44
2023/08/22 07:44:09;;;;;;;13.70;8.57;;;22.70;99.90;;;;;;5056546;28;20040;-42
2023/08/22 07:46:35;;;;;;;10.45;7.60;;;22.80;99.90;;;;;;5073073;28;20036;-43
2023/08/22 07:49:01;;;;;;;10.80;7.57;;;22.80;99.90;;;;;;5067985;28;20041;-41
2023/08/22 07:51:27;;;;;;;10.85;7.25;;;22.80;99.90;;;;;;5068807;28;20367;-42
2023/08/22 07:53:53;;;;;;;10.77;6.80;;;22.90;99.90;;;;;;5054867;28;20040;-42
2023/08/22 07:56:18;;;;;;;10.65;7.07;;;22.70;99.90;;;;;;5056093;28;20040;-43
2023/08/22 07:58:45;;;;;;;9.10;6.75;;;22.50;99.90;;;;;;5059117;28;20392;-39
2023/08/22 08:01:10;;;;;;;10.05;6.60;;;22.50;99.90;;;;;;5056463;28;20410;-43
2023/08/22 08:03:36;;;;;;;8.55;6.88;;;22.30;99.90;;;;;;5054788;28;20044;-39
2023/08/22 08:06:02;;;;;;;10.38;6.55;;;22.30;99.90;;;;;;5055943;28;20410;-45
2023/08/22 08:08:28;;;;;;;7.78;6.32;;;22.10;99.90;;;;;;5056487;28;20083;-40
2023/08/22 08:10:53;;;;;;;9.63;7.43;;;22.10;99.90;;;;;;5056337;28;20989;-44
2023/08/22 08:13:19;;;;;;;10.68;6.78;;;22.00;99.90;;;;;;5055648;28;20078;-43
2023/08/22 08:15:45;;;;;;;11.48;7.20;;;22.00;99.90;;;;;;5055268;28;20103;-43
2023/08/22 08:18:10;;;;;;;8.70;6.43;;;22.00;99.90;;;;;;5077598;28;20052;-43
2023/08/22 08:20:37;;;;;;;9.82;7.50;;;22.00;99.90;;;;;;5057881;28;20041;-44
2023/08/22 08:23:03;;;;;;;11.00;7.35;;;21.90;99.90;;;;;;5057773;28;20048;-42
2023/08/22 08:25:29;;;;;;;9.65;7.80;;;21.90;99.90;;;;;;5056129;28;20131;-41
2023/08/22 08:27:56;;;;;;;12.05;7.55;;;21.90;99.90;;;;;;5055328;28;20105;-41
2023/08/22 08:30:22;;;;;;;12.25;7.80;;;22.20;99.90;;;;;;5071744;28;20214;-39
2023/08/22 08:32:47;;;;;;;10.55;8.43;;;22.30;99.90;;;;;;5075665;28;20044;-45
2023/08/22 08:35:13;;;;;;;11.05;7.35;;;22.40;99.90;;;;;;5057236;28;20375;-40
2023/08/22 08:37:39;;;;;;;7.82;6.97;;;22.40;99.90;;;;;;5070449;28;20458;-41
2023/08/22 08:40:07;;;;;;;10.27;7.50;;;22.30;99.90;;;;;;5053634;28;20501;-42
2023/08/22 08:42:38;;;;;;;9.40;5.15;;;22.30;99.90;;;;;;5053719;28;20044;-41
2023/08/22 08:45:07;;;;;;;7.85;4.80;;;22.50;99.90;;;;;;5054425;28;20056;-42
2023/08/22 08:47:34;;;;;;;7.35;4.45;;;22.70;99.90;;;;;;5054549;28;20052;-42
2023/08/22 08:50:05;;;;;;;7.40;4.30;;;23.00;99.90;;;;;;5052707;28;20124;-43
2023/08/22 08:52:32;;;;;;;7.63;4.18;;;23.40;99.90;;;;;;5055625;28;20048;-46
2023/08/22 08:54:58;;;;;;;6.35;4.38;;;23.40;99.90;;;;;;5060323;28;20043;-43
2023/08/22 08:57:24;;;;;;;8.63;4.75;;;23.50;99.90;;;;;;5076070;28;20568;-39
2023/08/22 08:59:50;;;;;;;8.00;4.32;;;23.70;99.90;;;;;;5057598;28;20515;-43
2023/08/22 09:02:17;;;;;;;10.23;4.68;;;23.90;99.90;;;;;;5053525;28;20048;-44
2023/08/22 09:04:43;;;;;;;8.70;4.88;;;24.10;99.90;;;;;;5072401;28;20077;-44
2023/08/22 09:07:09;;;;;;;10.05;4.90;;;24.40;99.90;;;;;;5075836;28;20524;-42
2023/08/22 09:09:35;;;;;;;9.43;4.10;;;24.50;99.90;;;;;;5073686;28;20112;-43
2023/08/22 09:12:09;;;;;;;8.02;4.55;;;24.60;99.90;;;;;;5075152;28;20519;-44
2023/08/22 09:14:47;;;;;;;7.65;4.50;;;24.60;99.90;;;;;;5052410;28;20478;-43
2023/08/22 09:17:16;;;;;;;8.73;4.18;;;24.60;99.90;;;;;;5053648;28;20102;-44
2023/08/22 09:19:42;;;;;;;7.03;4.32;;;24.80;99.90;;;;;;5057400;28;20036;-41
2023/08/22 09:22:12;;;;;;;5.30;3.33;;;24.60;99.90;;;;;;5051097;28;20464;-44
2023/08/22 09:24:38;;;;;;;8.43;4.13;;;24.50;99.90;;;;;;5066178;28;20133;-40
2023/08/22 09:27:04;;;;;;;9.43;3.80;;;24.20;99.90;;;;;;5054756;28;20127;-44
2023/08/22 09:29:34;;;;;;;8.75;4.10;;;24.10;99.90;;;;;;5053904;28;20115;-43
2023/08/22 09:32:07;;;;;;;8.95;3.90;;;23.80;99.90;;;;;;5057365;28;20086;-41
2023/08/22 09:34:33;;;;;;;;;;;23.70;99.90;;;;;;5075454;28;20849;-43
2023/08/22 09:36:59;;;;;;;6.85;4.20;;;23.70;99.90;;;;;;5072010;28;19920;-41
2023/08/22 09:39:25;;;;;;;11.43;4.80;;;23.80;99.90;;;;;;5056809;28;20045;-43
2023/08/22 09:41:54;;;;;;;8.25;5.22;;;23.90;99.90;;;;;;5054565;28;20125;-44
2023/08/22 09:44:29;;;;;;;9.80;5.32;;;24.20;99.90;;;;;;5065503;28;20047;-43
2023/08/22 09:46:56;;;;;;;8.98;4.60;;;24.20;99.90;;;;;;5068498;28;20041;-41
2023/08/22 09:49:22;;;;;;;12.90;4.55;;;24.40;99.90;;;;;;5065943;28;20048;-42
2023/08/22 09:51:50;;;;;;;9.55;5.57;;;24.40;99.90;;;;;;5067346;28;20390;-43
2023/08/22 09:54:16;;;;;;;9.40;5.07;;;24.40;99.90;;;;;;5055856;28;20045;-43
2023/08/22 09:56:43;;;;;;;9.55;4.05;;;24.30;99.90;;;;;;5058029;28;20048;-41
2023/08/22 09:59:11;;;;;;;9.05;4.82;;;24.00;99.90;;;;;;5067368;28;20044;-42
2023/08/22 10:01:38;;;;;;;7.22;4.05;;;23.90;99.90;;;;;;5057867;28;20165;-43
2023/08/22 10:04:04;;;;;;;7.38;4.03;;;23.80;99.90;;;;;;5054266;28;20036;-43
2023/08/22 10:06:33;;;;;;;6.57;4.75;;;23.80;99.90;;;;;;5061823;28;20075;-43
2023/08/22 10:09:04;;;;;;;8.25;5.40;;;23.90;99.90;;;;;;5075000;28;20596;-45
2023/08/22 10:11:31;;;;;;;8.23;5.03;;;23.90;99.90;;;;;;5068186;28;20036;-42
2023/08/22 10:13:57;;;;;;;8.32;6.03;;;23.90;99.90;;;;;;5056139;28;20280;-44
2023/08/22 10:16:29;;;;;;;12.63;6.50;;;23.80;99.90;;;;;;5051159;28;20044;-41
2023/08/22 10:19:02;;;;;;;10.07;6.95;;;23.90;99.90;;;;;;5046495;28;20052;-39
2023/08/22 10:21:48;;;;;;;9.70;6.18;;;23.90;99.90;;;;;;5063420;28;20391;-43
2023/08/22 10:24:30;;;;;;;10.20;7.22;;;24.00;99.90;;;;;;5057205;28;20553;-44
2023/08/22 10:27:05;;;;;;;9.57;6.77;;;24.10;99.90;;;;;;5075260;28;20752;-41
2023/08/22 10:29:46;;;;;;;11.10;7.28;;;24.00;99.90;;;;;;5074588;28;20843;-43
2023/08/22 10:32:12;;;;;;;10.60;6.95;;;23.90;99.90;;;;;;5071864;28;20486;-43
2023/08/22 10:34:37;;;;;;;10.95;7.03;;;24.00;99.90;;;;;;5074013;28;20056;-45
2023/08/22 10:37:13;;;;;;;10.63;6.88;;;24.10;99.90;;;;;;5074468;28;20153;-40
2023/08/22 10:39:43;;;;;;;11.50;6.93;;;24.20;99.90;;;;;;5069052;28;20044;-40
2023/08/22 10:42:19;;;;;;;14.07;7.20;;;24.40;99.90;;;;;;5053225;28;20055;-41
2023/08/22 10:44:56;;;;;;;9.95;6.95;;;24.40;99.90;;;;;;5052597;28;20181;-44
2023/08/22 10:47:27;;;;;;;10.10;6.45;;;24.50;99.90;;;;;;5050501;28;20048;-44
2023/08/22 10:49:55;;;;;;;12.10;7.15;;;24.60;99.90;;;;;;5049268;28;20124;-42
2023/08/22 10:52:37;;;;;;;10.75;6.85;;;24.70;99.90;;;;;;5051243;28;20415;-42
2023/08/22 10:55:03;;;;;;;13.07;7.07;;;24.80;99.90;;;;;;5051980;28;20575;-44
2023/08/22 10:57:33;;;;;;;8.43;5.32;;;24.80;99.90;;;;;;5051106;28;20059;-44
2023/08/22 10:59:59;;;;;;;10.50;5.07;;;24.60;99.90;;;;;;5052956;28;20495;-40
2023/08/22 11:02:33;;;;;;;8.18;4.28;;;24.80;99.90;;;;;;5049139;28;20076;-44
2023/08/22 11:05:03;;;;;;;8.25;4.45;;;24.80;99.90;;;;;;5051434;28;20048;-44
2023/08/22 11:07:30;;;;;;;5.88;3.78;;;24.90;99.90;;;;;;5051594;28;20057;-41
2023/08/22 11:09:56;;;;;;;8.50;4.95;;;25.00;99.90;;;;;;5056549;28;20059;-40
2023/08/22 11:12:24;;;;;;;6.03;3.55;;;25.10;99.90;;;;;;5055537;28;20407;-44
2023/08/22 11:14:51;;;;;;;6.93;4.30;;;25.40;99.90;;;;;;5052271;28;20072;-43
2023/08/22 11:17:21;;;;;;;7.30;5.07;;;25.40;99.90;;;;;;5055601;28;20071;-43
2023/08/22 11:19:48;;;;;;;7.55;4.55;;;25.40;99.90;;;;;;5056526;28;20040;-40
2023/08/22 11:22:15;;;;;;;8.57;4.82;;;25.40;99.90;;;;;;5052294;28;20045;-44
2023/08/22 11:24:45;;;;;;;8.32;6.28;;;25.10;99.90;;;;;;5077513;27;20407;-44
2023/08/22 11:27:14;;;;;;;8.13;5.15;;;24.90;99.90;;;;;;5055240;28;20495;-40
2023/08/22 11:29:43;;;;;;;10.40;5.80;;;24.80;99.90;;;;;;5054118;28;20044;-41
2023/08/22 11:32:19;;;;;;;9.43;6.40;;;24.70;99.90;;;;;;5053083;28;20557;-45
2023/08/22 11:34:46;;;;;;;9.55;5.38;;;24.70;99.90;;;;;;5051129;28;20079;-40
2023/08/22 11:37:12;;;;;;;10.98;5.88;;;24.70;99.90;;;;;;5054438;28;20047;-40
2023/08/22 11:39:38;;;;;;;10.40;6.80;;;24.80;99.90;;;;;;5053421;28;20475;-43
2023/08/22 11:42:04;;;;;;;9.90;6.35;;;24.90;99.90;;;;;;5056537;28;20047;-43
2023/08/22 11:44:30;;;;;;;11.43;6.78;;;24.80;99.90;;;;;;5051268;28;20407;-40
2023/08/22 11:46:55;;;;;;;11.07;6.68;;;24.90;99.90;;;;;;5054504;28;20387;-43
2023/08/22 11:49:21;;;;;;;9.77;7.00;;;25.00;99.90;;;;;;5054884;28;20294;-43
2023/08/22 11:51:53;;;;;;;10.40;6.20;;;25.10;99.90;;;;;;5055418;28;20379;-40
2023/08/22 11:54:25;;;;;;;9.20;5.15;;;25.10;99.90;;;;;;5048105;28;20471;-43
2023/08/22 11:56:58;;;;;;;10.13;5.55;;;25.30;99.90;;;;;;5084632;28;20040;-42
2023/08/22 11:59:23;;;;;;;9.55;6.20;;;25.20;99.90;;;;;;5057958;28;20055;-43
2023/08/22 12:01:49;;;;;;;13.98;6.28;;;25.20;99.90;;;;;;5053014;28;20028;-46
2023/08/22 12:04:16;;;;;;;9.52;4.78;;;25.30;99.90;;;;;;5055382;28;20826;-44
2023/08/22 12:06:41;;;;;;;12.52;5.70;;;25.40;99.90;;;;;;5052353;28;20056;-43
2023/08/22 12:09:11;;;;;;;10.68;5.30;;;25.40;99.90;;;;;;5057404;28;20044;-43
2023/08/22 12:11:37;;;;;;;9.48;4.68;;;25.50;99.90;;;;;;5053497;28;20373;-44
2023/08/22 12:14:03;;;;;;;9.15;5.28;;;25.60;99.90;;;;;;5054957;28;20045;-45
2023/08/22 12:16:28;;;;;;;13.48;6.50;;;25.60;99.90;;;;;;5052335;28;20044;-43
2023/08/22 12:18:54;;;;;;;11.25;5.55;;;25.60;99.90;;;;;;5053791;28;20049;-42
2023/08/22 12:21:19;;;;;;;13.32;6.18;;;25.60;99.90;;;;;;5055602;28;20047;-47
2023/08/22 12:23:45;;;;;;;6.57;5.20;;;25.70;99.90;;;;;;5052414;28;20134;-42
2023/08/22 12:26:11;;;;;;;11.20;6.97;;;25.60;99.90;;;;;;5054490;28;20472;-46
2023/08/22 12:28:37;;;;;;;15.05;5.88;;;25.70;99.90;;;;;;5054637;28;20105;-40
2023/08/22 12:31:02;;;;;;;8.25;5.57;;;25.60;99.90;;;;;;5056298;28;20044;-43
2023/08/22 12:33:28;;;;;;;13.15;5.97;;;25.60;99.90;;;;;;5052368;28;20045;-44
2023/08/22 12:35:54;;;;;;;9.13;5.45;;;25.70;99.90;;;;;;5055015;28;20060;-42
2023/08/22 12:38:21;;;;;;;17.58;6.20;;;25.70;99.90;;;;;;5054505;28;20468;-44